createdAt,value
2019-06-07T06:00:25.249Z,56.60
2019-06-07T06:03:04.972Z,43.70
2019-06-07T06:05:34.402Z,42.50
2019-06-07T06:08:00.925Z,43.30
2019-06-07T06:50:44.317Z,43.90
2019-06-07T08:48:51.687Z,39.90
2019-06-07T08:54:08.468Z,38.70
2019-06-07T09:21:34.289Z,40.50
2019-06-07T09:24:11.223Z,45.90
2019-06-07T09:26:37.222Z,45.60
2019-06-07T10:54:30.780Z,43.50
2019-06-07T10:57:02.977Z,49.10
2019-06-07T10:59:33.543Z,49.50
2019-06-07T11:02:05.710Z,50.40
2019-06-07T11:04:36.368Z,50.80
2019-06-07T11:07:08.227Z,50.60
2019-06-07T11:12:08.765Z,50.50
2019-06-07T11:14:39.351Z,50.50
2019-06-07T11:17:11.337Z,51.30
2019-06-07T11:22:14.273Z,50.90
2019-06-07T11:24:45.025Z,51.50
2019-06-07T11:27:16.320Z,52.50
2019-06-07T11:29:47.646Z,52.40
2019-06-07T11:32:18.841Z,52.80
2019-06-07T11:34:49.549Z,52.30
2019-06-07T11:37:20.081Z,51.90
2019-06-07T11:39:51.085Z,51.80
2019-06-07T11:47:23.260Z,52.20
2019-06-07T11:49:53.996Z,51.60
2019-06-07T11:52:24.625Z,51.70
2019-06-07T11:54:55.214Z,51.50
2019-06-07T11:57:25.951Z,51.70
2019-06-07T12:00:02.060Z,52.10
2019-06-07T12:02:34.324Z,52.20
2019-06-07T12:05:05.508Z,52.20
2019-06-07T12:07:36.153Z,52.00
2019-06-07T12:10:08.453Z,52.30
2019-06-07T12:12:39.312Z,52.30
2019-06-07T12:15:11.311Z,52.60
2019-06-07T12:17:43.292Z,52.40
2019-06-07T12:20:15.339Z,52.50
2019-06-07T12:22:46.506Z,51.90
2019-06-07T12:25:21.524Z,52.50
2019-06-07T12:27:49.500Z,53.10
2019-06-07T12:30:25.998Z,52.60
2019-06-07T12:32:52.322Z,52.50
2019-06-07T12:35:22.909Z,51.30
2019-06-07T12:37:53.553Z,51.50
2019-06-07T12:40:31.589Z,52.20
2019-06-07T12:42:58.192Z,53.40
2019-06-07T12:45:45.504Z,54.00
2019-06-07T12:48:02.217Z,53.20
2019-06-07T12:50:42.732Z,53.30
2019-06-07T12:53:05.621Z,53.60
2019-06-07T12:55:37.293Z,53.80
2019-06-07T12:58:08.024Z,52.60
2019-06-07T13:00:38.642Z,53.30
2019-06-07T13:03:09.298Z,53.90
2019-06-07T13:05:39.919Z,53.20
2019-06-07T13:08:10.482Z,52.50
2019-06-07T13:10:41.116Z,52.50
2019-06-07T13:13:12.022Z,53.00
2019-06-07T13:15:42.634Z,53.00
2019-06-07T13:18:15.173Z,52.70
2019-06-07T13:20:45.480Z,52.60
2019-06-07T13:23:16.166Z,52.40
2019-06-07T13:25:47.990Z,52.70
2019-06-07T13:28:19.012Z,53.70
2019-06-07T13:30:49.992Z,53.80
2019-06-07T13:33:21.785Z,53.70
2019-06-07T13:35:52.914Z,53.90
2019-06-07T13:38:26.984Z,53.70
2019-06-07T13:40:57.664Z,54.00
2019-06-07T13:43:28.387Z,53.50
2019-06-07T13:45:59.161Z,53.50
2019-06-07T13:48:29.863Z,53.40
2019-06-07T13:51:00.564Z,53.80
2019-06-07T13:53:31.573Z,54.30
2019-06-07T13:56:02.210Z,54.30
2019-06-07T13:58:32.793Z,54.50
2019-06-07T14:01:03.315Z,53.90
2019-06-07T14:03:34.238Z,54.00
2019-06-07T14:06:05.223Z,53.80
2019-06-07T14:08:35.895Z,53.80
2019-06-07T14:11:06.553Z,54.00
2019-06-07T14:13:37.105Z,54.20
2019-06-07T14:16:07.723Z,55.30
2019-06-07T14:18:38.299Z,53.40
2019-06-07T14:21:09.077Z,52.80
2019-06-07T14:23:48.738Z,53.20
2019-06-07T14:26:12.025Z,52.60
2019-06-07T14:28:42.559Z,53.00
2019-06-07T14:31:13.102Z,52.70
2019-06-07T14:33:43.712Z,52.40
2019-06-07T14:36:14.360Z,52.80
2019-06-07T14:38:45.052Z,53.50
2019-06-07T14:41:15.669Z,53.20
2019-06-07T14:43:46.311Z,53.50
2019-06-07T14:46:17.209Z,53.30
2019-06-07T14:48:47.813Z,53.30
2019-06-07T14:51:18.534Z,52.80
2019-06-07T14:53:49.619Z,52.90
2019-06-07T14:56:20.287Z,53.60
2019-06-07T14:58:50.910Z,54.70
2019-06-07T15:01:22.589Z,55.70
2019-06-07T15:03:53.173Z,55.60
2019-06-07T15:06:24.088Z,55.60
2019-06-07T15:08:56.020Z,54.50
2019-06-07T15:26:28.345Z,55.90
